Time;durP1;ratioP1;P1;durP2;ratioP2;P2;SDS_P1;SDS_P2;PMS_P1;PMS_P2;Temp;Humidity;BMP_temperature;BMP_pressure;BME280_temperature;BME280_humidity;BME280_pressure;Samples;Min_cycle;Max_cycle;Signal;HPM_P1;HPM_P2
2023/03/09 00:02:18;;;;;;;22.60;14.20;;;2.00;99.90;;;;;;4980309;28;20457;-85
2023/03/09 00:04:44;;;;;;;24.73;14.45;;;2.00;99.90;;;;;;4986535;28;20066;-85
2023/03/09 00:07:09;;;;;;;21.70;13.23;;;2.00;99.90;;;;;;4982632;28;20454;-85
2023/03/09 00:09:35;;;;;;;23.15;13.55;;;1.90;99.90;;;;;;4983886;28;20046;-84
2023/03/09 00:12:04;;;;;;;22.55;12.90;;;2.00;99.90;;;;;;5044833;28;20038;-85
2023/03/09 00:14:29;;;;;;;22.17;12.80;;;2.00;99.90;;;;;;4974852;28;20039;-85
2023/03/09 00:16:55;;;;;;;23.05;13.52;;;2.00;99.90;;;;;;4982474;28;20338;-85
2023/03/09 00:19:26;;;;;;;23.98;13.63;;;2.00;99.90;;;;;;4967497;28;20038;-86
2023/03/09 00:21:55;;;;;;;25.48;15.00;;;2.00;99.90;;;;;;4975872;28;20054;-85
2023/03/09 00:24:24;;;;;;;31.50;19.33;;;1.90;99.90;;;;;;4969072;28;20053;-85
2023/03/09 00:27:01;;;;;;;36.20;20.73;;;1.90;99.90;;;;;;5072567;28;20134;-84
2023/03/09 00:29:28;;;;;;;39.78;23.52;;;1.90;99.90;;;;;;4963058;28;20054;-85
2023/03/09 00:31:55;;;;;;;37.83;22.88;;;1.90;99.90;;;;;;5042201;28;20713;-84
2023/03/09 00:34:21;;;;;;;36.53;23.23;;;1.90;99.90;;;;;;4988852;28;20046;-84
2023/03/09 00:36:48;;;;;;;35.75;23.45;;;1.90;99.90;;;;;;4979829;28;20066;-85
2023/03/09 00:39:17;;;;;;;32.03;22.00;;;1.90;99.90;;;;;;4982629;28;20050;-85
2023/03/09 00:41:43;;;;;;;33.42;22.35;;;1.90;99.90;;;;;;4966071;28;20377;-85
2023/03/09 00:44:11;;;;;;;33.35;22.13;;;1.90;99.90;;;;;;4989528;28;20038;-85
2023/03/09 00:46:37;;;;;;;30.25;21.92;;;1.80;99.90;;;;;;5004560;28;20943;-85
2023/03/09 00:49:05;;;;;;;29.20;20.55;;;1.80;99.90;;;;;;4984385;28;20070;-85
2023/03/09 00:51:32;;;;;;;30.95;22.38;;;1.90;99.90;;;;;;4980295;28;20490;-85
2023/03/09 00:53:58;;;;;;;32.05;24.25;;;1.80;99.90;;;;;;5079406;28;20034;-86
2023/03/09 00:56:27;;;;;;;35.15;25.45;;;1.80;99.90;;;;;;5043710;28;20038;-85
2023/03/09 00:58:53;;;;;;;34.70;25.08;;;1.80;99.90;;;;;;4992450;28;20087;-85
2023/03/09 01:01:19;;;;;;;32.00;22.70;;;1.80;99.90;;;;;;4984934;28;20078;-85
2023/03/09 01:03:49;;;;;;;31.08;22.27;;;1.80;99.90;;;;;;5000741;28;20042;-85
2023/03/09 01:06:15;;;;;;;29.65;19.88;;;1.70;99.90;;;;;;5056160;28;20038;-85
2023/03/09 01:08:42;;;;;;;28.98;19.90;;;1.70;99.90;;;;;;5039923;28;20034;-85
2023/03/09 01:11:13;;;;;;;25.63;18.45;;;1.70;99.90;;;;;;4977205;28;20042;-86
2023/03/09 01:13:39;;;;;;;28.63;16.67;;;1.60;99.90;;;;;;4968555;28;20087;-86
2023/03/09 01:16:05;;;;;;;22.48;15.60;;;1.60;99.90;;;;;;5041740;28;20923;-85
2023/03/09 01:18:31;;;;;;;21.52;15.25;;;1.60;99.90;;;;;;5038899;28;20350;-85
2023/03/09 01:20:58;;;;;;;19.08;14.15;;;1.50;99.90;;;;;;4974020;28;20603;-85
2023/03/09 01:23:23;;;;;;;18.42;12.57;;;1.50;99.90;;;;;;5059615;28;20457;-85
2023/03/09 01:25:49;;;;;;;17.63;12.15;;;1.50;99.90;;;;;;4974674;28;20042;-85
2023/03/09 01:28:15;;;;;;;19.35;12.32;;;1.40;99.90;;;;;;4978341;28;20102;-86
2023/03/09 01:30:44;;;;;;;18.10;11.85;;;1.40;99.90;;;;;;4985995;28;20057;-85
2023/03/09 01:33:10;;;;;;;17.55;10.80;;;1.30;99.90;;;;;;4961383;28;20042;-85
2023/03/09 01:35:38;;;;;;;15.25;10.02;;;1.30;99.90;;;;;;4979590;28;20042;-85
2023/03/09 01:38:04;;;;;;;15.40;10.25;;;1.30;99.90;;;;;;4991661;28;20042;-85
2023/03/09 01:40:31;;;;;;;13.85;9.55;;;1.30;99.90;;;;;;4986348;28;20489;-85
2023/03/09 01:43:19;;;;;;;15.43;9.80;;;1.30;99.90;;;;;;4981671;28;20106;-85
2023/03/09 01:45:48;;;;;;;17.33;10.10;;;1.20;99.90;;;;;;5000327;28;20563;-86
2023/03/09 01:48:14;;;;;;;14.85;9.55;;;1.20;99.90;;;;;;4967215;28;20042;-85
2023/03/09 01:50:44;;;;;;;14.50;9.68;;;1.10;99.90;;;;;;4993322;28;20054;-85
2023/03/09 01:53:15;;;;;;;15.18;9.77;;;1.10;99.90;;;;;;5004239;28;20085;-85
2023/03/09 01:55:46;;;;;;;14.88;9.18;;;1.10;99.90;;;;;;4985578;28;20046;-85
2023/03/09 01:58:23;;;;;;;13.98;9.15;;;1.10;99.90;;;;;;5010537;28;20116;-85
2023/03/09 02:00:52;;;;;;;15.10;9.23;;;1.00;99.90;;;;;;4973862;28;20124;-85
2023/03/09 02:03:33;;;;;;;15.77;9.60;;;1.00;99.90;;;;;;4985003;28;20041;-86
2023/03/09 02:06:21;;;;;;;14.48;9.15;;;1.00;99.90;;;;;;4992199;28;20040;-84
2023/03/09 02:09:12;;;;;;;14.80;9.48;;;1.00;99.90;;;;;;4997999;28;20402;-85
2023/03/09 02:11:39;;;;;;;15.43;9.20;;;0.90;99.90;;;;;;4978248;28;20042;-85
2023/03/09 02:14:07;;;;;;;13.35;8.75;;;0.90;99.90;;;;;;5046089;28;20041;-85
2023/03/09 02:16:33;;;;;;;13.95;9.35;;;1.00;99.90;;;;;;5056826;28;20510;-85
2023/03/09 02:19:02;;;;;;;16.65;10.60;;;0.90;99.90;;;;;;4974169;28;20455;-85
2023/03/09 02:21:50;;;;;;;15.65;10.07;;;1.00;99.90;;;;;;4981926;28;20026;-85
2023/03/09 02:24:37;;;;;;;18.10;10.73;;;0.90;99.90;;;;;;5043049;28;20393;-86
2023/03/09 02:27:24;;;;;;;17.10;10.07;;;0.90;99.90;;;;;;4977677;28;20208;-85
2023/03/09 02:29:51;;;;;;;15.55;9.77;;;0.80;99.90;;;;;;5006065;28;20066;-85
2023/03/09 02:32:18;;;;;;;15.25;9.77;;;0.80;99.90;;;;;;5051336;28;20038;-85
2023/03/09 02:34:44;;;;;;;16.75;10.30;;;0.80;99.90;;;;;;4998357;28;20152;-86
2023/03/09 02:37:25;;;;;;;15.48;10.25;;;0.80;99.90;;;;;;5047450;28;20039;-86
2023/03/09 02:39:55;;;;;;;16.15;10.63;;;0.90;99.90;;;;;;4990065;28;20441;-86
2023/03/09 02:42:21;;;;;;;15.82;9.77;;;0.90;99.90;;;;;;4988224;28;20340;-86
2023/03/09 02:44:48;;;;;;;15.70;10.18;;;0.90;99.90;;;;;;4978773;28;20519;-86
2023/03/09 02:47:20;;;;;;;16.63;10.52;;;0.90;99.90;;;;;;4995330;28;20073;-86
2023/03/09 02:49:45;;;;;;;19.33;11.73;;;0.90;99.90;;;;;;4988534;28;20039;-85
2023/03/09 02:52:11;;;;;;;18.08;11.38;;;0.90;99.90;;;;;;4981653;28;20030;-85
2023/03/09 02:54:37;;;;;;;20.67;12.32;;;0.90;99.90;;;;;;4998507;28;20023;-85
2023/03/09 02:57:02;;;;;;;23.95;13.40;;;0.90;99.90;;;;;;5059063;28;20038;-85
2023/03/09 02:59:31;;;;;;;22.85;13.15;;;0.90;99.90;;;;;;4992082;28;20138;-85
2023/03/09 03:01:57;;;;;;;22.95;13.38;;;0.90;99.90;;;;;;4997936;28;20040;-86
2023/03/09 03:04:23;;;;;;;22.58;12.75;;;0.90;99.90;;;;;;4988903;28;20138;-85
2023/03/09 03:06:52;;;;;;;20.67;12.45;;;1.00;99.90;;;;;;5057665;28;20549;-86
2023/03/09 03:09:18;;;;;;;18.55;11.95;;;1.00;99.90;;;;;;5008341;28;20079;-86
2023/03/09 03:11:43;;;;;;;23.35;13.93;;;0.90;99.90;;;;;;4986547;28;20117;-85
2023/03/09 03:14:09;;;;;;;22.85;13.00;;;1.00;99.90;;;;;;4987648;28;20415;-85
2023/03/09 03:16:35;;;;;;;20.75;13.57;;;0.90;99.90;;;;;;4997317;28;20478;-84
2023/03/09 03:19:01;;;;;;;21.77;14.07;;;1.00;99.90;;;;;;4986033;28;20462;-85
2023/03/09 03:21:27;;;;;;;24.95;13.85;;;1.00;99.90;;;;;;4980365;28;20463;-85
2023/03/09 03:23:52;;;;;;;21.90;13.63;;;1.00;99.90;;;;;;4999594;28;20042;-85
2023/03/09 03:26:18;;;;;;;24.00;13.68;;;1.10;99.90;;;;;;5042115;28;20046;-85
2023/03/09 03:28:44;;;;;;;25.73;14.50;;;1.10;99.90;;;;;;4995858;28;20069;-84
2023/03/09 03:31:11;;;;;;;22.58;13.90;;;1.00;99.90;;;;;;4975145;28;20061;-85
2023/03/09 03:33:40;;;;;;;23.42;13.82;;;1.00;99.90;;;;;;4981101;28;20511;-86
2023/03/09 03:36:06;;;;;;;23.63;14.15;;;1.10;99.90;;;;;;4982841;28;20512;-85
2023/03/09 03:38:32;;;;;;;23.83;13.88;;;1.00;99.90;;;;;;4975207;28;20142;-85
2023/03/09 03:40:57;;;;;;;24.83;14.65;;;1.10;99.90;;;;;;4989015;28;20123;-86
2023/03/09 03:43:23;;;;;;;24.60;14.18;;;1.10;99.90;;;;;;4959827;28;20498;-85
2023/03/09 03:45:49;;;;;;;23.55;14.32;;;1.10;99.90;;;;;;4965584;28;20512;-86
2023/03/09 03:48:14;;;;;;;25.83;14.48;;;1.00;99.90;;;;;;4989528;28;20087;-86
2023/03/09 03:50:40;;;;;;;23.67;13.95;;;1.10;99.90;;;;;;4979942;28;20042;-85
2023/03/09 03:53:08;;;;;;;23.27;13.75;;;1.10;99.90;;;;;;4971495;28;20040;-85
2023/03/09 03:55:34;;;;;;;22.65;12.95;;;1.20;99.90;;;;;;4988469;28;20046;-85
2023/03/09 03:57:59;;;;;;;21.55;13.55;;;1.20;99.90;;;;;;4958995;28;20035;-85
2023/03/09 04:00:26;;;;;;;23.15;13.90;;;1.20;99.90;;;;;;4983609;28;20465;-86
2023/03/09 04:02:52;;;;;;;24.58;13.68;;;1.20;99.90;;;;;;5037893;28;20030;-86
2023/03/09 04:05:18;;;;;;;23.83;13.95;;;1.20;99.90;;;;;;4981030;28;20043;-85
2023/03/09 04:07:43;;;;;;;25.13;14.63;;;1.20;99.90;;;;;;4975621;28;20455;-85
2023/03/09 04:10:12;;;;;;;24.10;13.85;;;1.20;99.90;;;;;;4982791;28;20035;-86
2023/03/09 04:12:38;;;;;;;23.10;13.68;;;1.20;99.90;;;;;;5057083;28;20127;-85
2023/03/09 04:15:05;;;;;;;23.15;13.65;;;1.20;99.90;;;;;;4983209;28;20056;-85
2023/03/09 04:17:31;;;;;;;24.35;14.13;;;1.20;99.90;;;;;;4979227;28;20330;-86
2023/03/09 04:19:56;;;;;;;23.70;13.68;;;1.20;99.90;;;;;;4966290;28;20146;-85
2023/03/09 04:22:22;;;;;;;24.35;13.73;;;1.20;99.90;;;;;;4980501;28;20265;-86
2023/03/09 04:24:49;;;;;;;24.20;14.20;;;1.20;99.90;;;;;;5011404;28;20426;-85
2023/03/09 04:27:17;;;;;;;25.33;14.32;;;1.10;99.90;;;;;;5040385;28;20363;-85
2023/03/09 04:29:43;;;;;;;24.00;14.65;;;1.10;99.90;;;;;;4991409;28;20042;-86
2023/03/09 04:32:09;;;;;;;26.45;14.88;;;1.10;99.90;;;;;;4991938;28;20470;-86
2023/03/09 04:34:34;;;;;;;31.23;15.63;;;1.10;99.90;;;;;;5057951;28;20405;-86
2023/03/09 04:37:00;;;;;;;26.67;15.30;;;1.10;99.90;;;;;;4977825;28;20032;-84
2023/03/09 04:39:26;;;;;;;27.67;15.35;;;1.10;99.90;;;;;;4993329;28;20039;-86
2023/03/09 04:41:54;;;;;;;29.55;16.40;;;1.10;99.90;;;;;;4968838;28;20042;-85
2023/03/09 04:44:20;;;;;;;26.48;14.80;;;1.10;99.90;;;;;;4987561;28;20082;-86
2023/03/09 04:46:46;;;;;;;28.48;16.38;;;1.20;99.90;;;;;;4981413;28;20417;-86
2023/03/09 04:49:12;;;;;;;29.98;16.48;;;1.10;99.90;;;;;;4966770;28;20074;-85
2023/03/09 04:51:37;;;;;;;30.58;17.00;;;1.10;99.90;;;;;;4978807;28;20497;-86
2023/03/09 04:54:03;;;;;;;27.50;16.00;;;1.10;99.90;;;;;;4997357;28;20123;-86
2023/03/09 04:56:29;;;;;;;29.50;16.83;;;1.10;99.90;;;;;;4992812;28;20152;-86
2023/03/09 04:58:55;;;;;;;31.40;16.70;;;1.10;99.90;;;;;;4998722;28;20053;-85
2023/03/09 05:01:24;;;;;;;32.45;17.73;;;1.10;99.90;;;;;;5042174;28;20144;-86
2023/03/09 05:03:50;;;;;;;29.88;16.65;;;1.10;99.90;;;;;;5056540;28;20076;-86
2023/03/09 05:06:15;;;;;;;32.85;17.63;;;1.20;99.90;;;;;;4985476;28;20062;-86
2023/03/09 05:08:41;;;;;;;31.10;16.70;;;1.20;99.90;;;;;;4991693;28;20582;-86
2023/03/09 05:11:07;;;;;;;28.58;16.08;;;1.20;99.90;;;;;;5044545;28;20409;-86
2023/03/09 05:13:32;;;;;;;31.67;16.80;;;1.10;99.90;;;;;;4966327;28;20051;-86
2023/03/09 05:15:58;;;;;;;28.73;15.43;;;1.20;99.90;;;;;;5044297;28;20042;-86
2023/03/09 05:18:24;;;;;;;29.60;15.73;;;1.20;99.90;;;;;;4984177;28;20042;-85
2023/03/09 05:20:52;;;;;;;28.30;15.48;;;1.20;99.90;;;;;;4998355;28;20572;-85
2023/03/09 05:23:18;;;;;;;27.30;15.48;;;1.20;99.90;;;;;;4974519;28;20123;-85
2023/03/09 05:25:44;;;;;;;27.08;15.50;;;1.20;99.90;;;;;;4997358;28;20538;-86
2023/03/09 05:28:11;;;;;;;27.77;15.07;;;1.10;99.90;;;;;;5062150;28;20046;-86
2023/03/09 05:30:37;;;;;;;26.92;15.77;;;1.20;99.90;;;;;;4993677;28;20058;-86
2023/03/09 05:33:03;;;;;;;26.20;15.35;;;1.20;99.90;;;;;;4967728;28;20118;-86
2023/03/09 05:35:29;;;;;;;27.15;14.75;;;1.20;99.90;;;;;;4987881;28;20685;-86
2023/03/09 05:37:55;;;;;;;27.05;15.25;;;1.10;99.90;;;;;;5058067;28;20107;-86
2023/03/09 05:40:22;;;;;;;30.77;16.10;;;1.10;99.90;;;;;;4974900;28;20381;-86
2023/03/09 05:42:48;;;;;;;26.48;15.13;;;1.10;99.90;;;;;;4965966;28;20078;-86
2023/03/09 05:45:13;;;;;;;26.50;15.00;;;1.20;99.90;;;;;;4988996;28;20130;-85
2023/03/09 05:47:40;;;;;;;26.10;14.48;;;1.20;99.90;;;;;;4994605;28;20042;-86
2023/03/09 05:50:06;;;;;;;26.08;14.88;;;1.20;99.90;;;;;;4992932;28;20263;-86
2023/03/09 05:52:32;;;;;;;24.77;14.75;;;1.20;99.90;;;;;;4995739;28;20041;-86
2023/03/09 05:54:57;;;;;;;26.52;15.27;;;1.20;99.90;;;;;;4985806;28;20117;-86
2023/03/09 05:57:23;;;;;;;28.25;14.90;;;1.10;99.90;;;;;;4982068;28;20047;-86
2023/03/09 05:59:49;;;;;;;27.05;15.98;;;1.20;99.90;;;;;;4998873;28;20885;-86
2023/03/09 06:02:14;;;;;;;30.45;16.33;;;1.10;99.90;;;;;;4975137;28;20397;-86
2023/03/09 06:04:40;;;;;;;30.27;15.85;;;1.20;99.90;;;;;;4977049;28;20038;-85
2023/03/09 06:07:06;;;;;;;28.77;16.38;;;1.20;99.90;;;;;;4986168;28;20042;-87
2023/03/09 06:09:31;;;;;;;31.73;17.27;;;1.10;99.90;;;;;;4981470;28;20042;-86
2023/03/09 06:11:57;;;;;;;31.02;17.33;;;1.20;99.90;;;;;;5042871;28;20034;-84
2023/03/09 06:14:23;;;;;;;30.85;16.75;;;1.20;99.90;;;;;;4975287;28;20038;-86
2023/03/09 06:16:48;;;;;;;31.15;17.50;;;1.20;99.90;;;;;;4997761;28;20042;-86
2023/03/09 06:19:14;;;;;;;29.95;17.10;;;1.20;99.90;;;;;;4964846;28;20046;-86
2023/03/09 06:21:40;;;;;;;30.13;16.80;;;1.20;99.90;;;;;;4981385;28;20085;-86
2023/03/09 06:24:05;;;;;;;30.95;18.42;;;1.20;99.90;;;;;;5064699;28;20035;-86
2023/03/09 06:26:31;;;;;;;32.83;18.02;;;1.30;99.90;;;;;;4992011;28;20491;-86
2023/03/09 06:28:57;;;;;;;29.73;17.60;;;1.30;99.90;;;;;;4984285;28;20140;-86
2023/03/09 06:31:23;;;;;;;33.28;17.23;;;1.40;99.90;;;;;;4987460;28;20248;-86
2023/03/09 06:33:48;;;;;;;34.63;17.65;;;1.30;99.90;;;;;;4977738;28;20050;-86
2023/03/09 06:36:16;;;;;;;30.42;18.35;;;1.20;99.90;;;;;;5076098;28;20133;-85
2023/03/09 06:38:42;;;;;;;30.48;18.00;;;1.20;99.90;;;;;;4996096;28;20032;-85
2023/03/09 06:41:08;;;;;;;31.95;17.90;;;1.30;99.90;;;;;;4995203;28;20032;-86
2023/03/09 06:43:34;;;;;;;29.15;16.67;;;1.30;99.90;;;;;;5043338;28;20039;-86
2023/03/09 06:46:00;;;;;;;30.85;17.75;;;1.30;99.90;;;;;;5004862;28;20555;-86
2023/03/09 06:48:31;;;;;;;30.50;18.02;;;1.40;99.90;;;;;;4989183;28;20403;-86
2023/03/09 06:50:57;;;;;;;29.15;16.75;;;1.50;99.90;;;;;;4999433;28;20058;-85
2023/03/09 06:53:23;;;;;;;31.98;17.60;;;1.40;99.90;;;;;;5002759;28;20050;-86
2023/03/09 06:55:49;;;;;;;26.90;17.27;;;1.50;99.90;;;;;;5060780;28;20050;-86
2023/03/09 06:58:15;;;;;;;30.02;16.80;;;1.50;99.90;;;;;;5007557;28;20053;-85
2023/03/09 07:00:43;;;;;;;27.92;17.05;;;1.50;99.90;;;;;;4974004;28;20068;-85
2023/03/09 07:03:16;;;;;;;25.50;15.82;;;1.60;99.90;;;;;;4980861;28;20042;-86
2023/03/09 07:05:47;;;;;;;25.02;16.98;;;1.60;99.90;;;;;;4991733;28;20288;-86
2023/03/09 07:08:13;;;;;;;27.02;15.88;;;1.60;99.90;;;;;;4991288;28;20332;-86
2023/03/09 07:10:39;;;;;;;27.33;16.70;;;1.70;99.90;;;;;;4992057;28;20042;-86
2023/03/09 07:13:04;;;;;;;25.20;15.45;;;1.70;99.90;;;;;;4979476;28;20082;-85
2023/03/09 07:15:30;;;;;;;25.55;15.38;;;1.70;99.90;;;;;;5061640;28;20054;-85
2023/03/09 07:17:56;;;;;;;29.15;16.10;;;1.70;99.90;;;;;;4962446;28;20631;-86
2023/03/09 07:20:24;;;;;;;24.17;15.00;;;1.70;99.90;;;;;;4964932;28;20046;-86
2023/03/09 07:22:49;;;;;;;26.23;15.15;;;1.70;99.90;;;;;;4987826;28;20273;-86
2023/03/09 07:25:16;;;;;;;27.17;14.90;;;1.70;99.90;;;;;;5041908;28;20286;-85
2023/03/09 07:27:42;;;;;;;22.88;14.80;;;1.70;99.90;;;;;;4969495;28;20036;-86
2023/03/09 07:30:09;;;;;;;25.27;14.98;;;1.80;99.90;;;;;;5045029;28;20072;-85
2023/03/09 07:32:34;;;;;;;24.75;14.90;;;1.80;99.90;;;;;;4997978;28;20042;-85
2023/03/09 07:35:00;;;;;;;24.40;15.40;;;1.90;99.90;;;;;;4990748;28;20042;-85
2023/03/09 07:37:26;;;;;;;25.25;14.25;;;1.90;99.90;;;;;;5045044;28;20042;-86
2023/03/09 07:39:51;;;;;;;24.17;15.07;;;2.10;99.90;;;;;;4981242;28;20242;-86
2023/03/09 07:42:17;;;;;;;22.15;14.02;;;2.20;99.90;;;;;;4970490;28;20047;-86
2023/03/09 07:44:43;;;;;;;20.83;14.43;;;2.30;99.90;;;;;;4991036;28;20037;-85
2023/03/09 07:47:08;;;;;;;20.70;13.63;;;2.40;99.90;;;;;;4998579;28;20050;-86
2023/03/09 07:49:34;;;;;;;21.50;14.00;;;2.40;99.90;;;;;;4963753;28;20216;-85
2023/03/09 07:52:00;;;;;;;23.73;13.88;;;2.60;99.90;;;;;;4976452;28;20064;-85
2023/03/09 07:54:28;;;;;;;17.88;12.60;;;2.70;99.90;;;;;;4991091;28;20476;-85
2023/03/09 07:56:55;;;;;;;18.92;12.48;;;2.70;99.90;;;;;;4993027;28;20402;-84
2023/03/09 07:59:21;;;;;;;19.33;12.20;;;2.70;99.90;;;;;;4966453;28;20118;-85
2023/03/09 08:01:46;;;;;;;21.77;12.98;;;2.70;99.90;;;;;;4977051;28;20290;-85
2023/03/09 08:04:16;;;;;;;16.98;11.70;;;2.60;99.90;;;;;;4959674;28;20050;-85
2023/03/09 08:06:43;;;;;;;18.92;12.40;;;2.70;99.90;;;;;;4969475;28;20420;-85
2023/03/09 08:09:14;;;;;;;17.17;11.13;;;2.80;99.90;;;;;;4966855;28;20482;-85
2023/03/09 08:11:40;;;;;;;15.93;11.02;;;2.80;99.90;;;;;;4974612;28;21002;-85
2023/03/09 08:14:05;;;;;;;16.05;10.85;;;2.90;99.90;;;;;;4987430;28;20082;-85
2023/03/09 08:16:31;;;;;;;18.15;11.52;;;3.00;99.90;;;;;;4986843;28;20527;-85
2023/03/09 08:18:56;;;;;;;15.93;10.30;;;3.10;99.90;;;;;;4990372;28;20053;-85
2023/03/09 08:21:22;;;;;;;15.30;10.43;;;3.10;99.90;;;;;;4987165;28;20157;-85
2023/03/09 08:23:48;;;;;;;15.55;10.02;;;3.10;99.90;;;;;;4985363;28;20173;-85
2023/03/09 08:26:15;;;;;;;13.60;9.40;;;3.30;99.90;;;;;;4963753;28;20125;-85
2023/03/09 08:28:42;;;;;;;13.52;9.68;;;3.30;99.90;;;;;;4997362;28;20038;-85
2023/03/09 08:31:14;;;;;;;13.02;8.93;;;3.50;99.90;;;;;;4995421;28;20136;-85
2023/03/09 08:33:40;;;;;;;13.13;8.95;;;3.40;99.90;;;;;;4968317;28;20100;-85
2023/03/09 08:36:15;;;;;;;16.02;9.50;;;3.50;99.90;;;;;;5073714;28;20141;-85
2023/03/09 08:38:42;;;;;;;;;;;3.60;99.90;;;;;;5066257;28;20032;-85
2023/03/09 08:41:07;;;;;;;13.38;8.70;;;3.60;99.90;;;;;;5056311;28;19926;-86
2023/03/09 08:43:33;;;;;;;12.20;8.57;;;3.60;99.90;;;;;;4980826;28;20030;-85
2023/03/09 08:45:59;;;;;;;13.73;8.98;;;3.60;99.90;;;;;;4979224;28;20035;-85
2023/03/09 08:48:24;;;;;;;15.35;9.90;;;3.60;99.90;;;;;;4977492;28;20123;-85
2023/03/09 08:50:50;;;;;;;15.00;9.80;;;3.60;99.90;;;;;;4968202;28;20049;-85
2023/03/09 08:53:18;;;;;;;13.40;9.02;;;3.60;99.90;;;;;;4967539;28;20075;-85
2023/03/09 08:55:44;;;;;;;14.40;9.88;;;3.60;99.90;;;;;;4976128;28;20433;-85
2023/03/09 08:58:12;;;;;;;14.43;9.75;;;3.70;99.90;;;;;;4988096;28;20077;-85
2023/03/09 09:00:38;;;;;;;13.45;9.52;;;3.80;99.90;;;;;;4969067;28;20084;-85
2023/03/09 09:03:04;;;;;;;11.88;8.65;;;3.80;99.90;;;;;;4980333;28;20096;-85
2023/03/09 09:05:30;;;;;;;14.23;9.70;;;4.00;99.90;;;;;;4971117;28;20095;-85
2023/03/09 09:07:56;;;;;;;12.38;8.85;;;4.10;99.90;;;;;;4973983;28;20048;-85
2023/03/09 09:10:22;;;;;;;14.60;9.07;;;4.00;99.90;;;;;;4973173;28;20038;-85
2023/03/09 09:12:47;;;;;;;15.00;10.27;;;4.30;99.90;;;;;;4982430;28;20055;-84
2023/03/09 09:15:16;;;;;;;14.32;9.95;;;4.40;99.90;;;;;;5038840;28;20042;-85
2023/03/09 09:17:42;;;;;;;17.38;10.05;;;4.60;99.90;;;;;;4974265;28;20240;-84
2023/03/09 09:20:11;;;;;;;15.70;9.68;;;4.60;99.90;;;;;;5042937;28;20042;-85
2023/03/09 09:22:40;;;;;;;13.40;9.77;;;4.50;99.90;;;;;;4990769;28;20043;-85
2023/03/09 09:25:08;;;;;;;16.33;9.90;;;4.60;99.90;;;;;;4987385;28;20041;-85
2023/03/09 09:27:35;;;;;;;17.45;9.80;;;4.70;99.90;;;;;;5057131;28;20306;-85
2023/03/09 09:30:02;;;;;;;12.80;9.45;;;4.80;1.00;;;;;;4987191;28;20076;-86
2023/03/09 09:32:27;;;;;;;14.43;9.55;;;4.70;1.00;;;;;;4973924;28;20046;-84
2023/03/09 09:34:53;;;;;;;13.43;9.80;;;4.70;1.00;;;;;;5073420;28;20504;-85
2023/03/09 09:37:19;;;;;;;13.23;9.98;;;4.90;1.00;;;;;;4975292;28;20106;-85
2023/03/09 09:39:48;;;;;;;15.38;10.63;;;4.80;1.00;;;;;;4974493;28;20049;-85
2023/03/09 09:42:32;;;;;;;11.10;8.73;;;4.90;1.00;;;;;;4981414;28;20917;-85
2023/03/09 09:44:59;;;;;;;13.13;9.77;;;4.80;99.90;;;;;;4975720;28;20050;-85
2023/03/09 09:47:27;;;;;;;14.60;10.10;;;4.90;99.90;;;;;;4981141;28;20627;-85
2023/03/09 09:49:56;;;;;;;12.40;9.15;;;5.00;99.90;;;;;;4970601;28;20104;-85
2023/03/09 09:52:46;;;;;;;13.45;9.85;;;4.90;99.90;;;;;;5041409;28;20605;-85
2023/03/09 09:55:26;;;;;;;13.70;9.65;;;5.10;99.90;;;;;;4984605;28;20053;-85
2023/03/09 09:58:27;;;;;;;15.00;10.48;;;5.10;99.90;;;;;;4982139;28;20246;-85
2023/03/09 10:00:56;;;;;;;14.43;9.48;;;4.80;99.90;;;;;;5003142;28;20074;-84
2023/03/09 10:03:45;;;;;;;14.23;10.00;;;4.90;99.90;;;;;;4983544;28;20119;-85
2023/03/09 10:06:21;;;;;;;12.70;9.00;;;5.10;99.90;;;;;;4980205;28;20297;-85
2023/03/09 10:09:09;;;;;;;11.48;8.77;;;5.10;99.90;;;;;;4979575;28;20034;-85
2023/03/09 10:11:43;;;;;;;12.32;9.18;;;5.00;99.90;;;;;;4988275;28;20030;-85
2023/03/09 10:14:30;;;;;;;13.07;9.65;;;5.10;99.90;;;;;;4966944;28;20125;-85
2023/03/09 10:17:02;;;;;;;16.23;9.52;;;5.00;99.90;;;;;;4998672;28;20049;-85
2023/03/09 10:19:34;;;;;;;11.70;9.18;;;5.00;99.90;;;;;;4969225;28;20105;-84
2023/03/09 10:22:14;;;;;;;13.60;9.30;;;5.20;99.90;;;;;;4967949;28;20105;-85
2023/03/09 10:24:45;;;;;;;12.80;9.15;;;5.30;99.90;;;;;;4974711;28;20296;-85
2023/03/09 10:27:35;;;;;;;13.07;9.95;;;5.50;99.90;;;;;;4987980;28;20486;-85
2023/03/09 10:30:10;;;;;;;15.30;9.52;;;5.50;99.90;;;;;;4985607;28;20050;-84
2023/03/09 10:32:57;;;;;;;12.52;9.02;;;5.40;1.00;;;;;;4985528;28;20058;-85
2023/03/09 10:35:41;;;;;;;13.63;9.80;;;5.50;99.90;;;;;;4959774;28;20387;-85
2023/03/09 10:38:13;;;;;;;13.30;9.93;;;5.90;71.20;;;;;;4994371;28;20095;-85
2023/03/09 10:40:48;;;;;;;12.93;9.82;;;5.80;99.90;;;;;;4984574;28;20045;-85
2023/03/09 10:43:23;;;;;;;;;;;5.80;99.90;;;;;;4972000;28;20035;-85
2023/03/09 10:45:49;;;;;;;12.20;9.43;;;5.80;99.90;;;;;;4978082;28;19921;-85
2023/03/09 10:48:25;;;;;;;11.40;9.05;;;5.90;99.90;;;;;;4970107;28;20067;-84
2023/03/09 10:51:03;;;;;;;12.80;9.63;;;5.50;99.90;;;;;;4982188;28;20447;-85
2023/03/09 10:53:28;;;;;;;13.30;9.98;;;5.90;99.90;;;;;;4993731;28;20077;-85
2023/03/09 10:56:05;;;;;;;12.25;9.45;;;6.00;99.90;;;;;;4999425;28;20125;-85
2023/03/09 10:58:32;;;;;;;14.43;10.43;;;6.00;99.90;;;;;;4963870;28;20050;-85
2023/03/09 11:01:02;;;;;;;13.27;9.35;;;5.80;1.70;;;;;;4975467;28;20035;-84
2023/03/09 11:03:51;;;;;;;12.45;9.52;;;6.00;99.90;;;;;;4977912;28;20078;-85
2023/03/09 11:06:43;;;;;;;11.73;8.80;;;5.90;99.90;;;;;;4990131;28;20054;-85
2023/03/09 11:09:20;;;;;;;13.43;8.93;;;5.80;99.90;;;;;;4966776;28;20437;-84
2023/03/09 11:11:49;;;;;;;12.00;9.38;;;5.70;99.90;;;;;;4978014;28;20046;-85
2023/03/09 11:14:40;;;;;;;10.20;8.38;;;5.70;99.90;;;;;;4975713;28;20102;-85
2023/03/09 11:17:23;;;;;;;11.25;8.43;;;5.70;1.00;;;;;;5040996;28;20034;-85
2023/03/09 11:19:49;;;;;;;11.77;9.48;;;5.70;99.90;;;;;;5030847;28;20405;-85
2023/03/09 11:22:16;;;;;;;11.27;8.95;;;5.90;1.00;;;;;;4966640;28;20024;-85
2023/03/09 11:24:45;;;;;;;12.75;9.30;;;5.90;1.00;;;;;;5060123;28;20327;-85
2023/03/09 11:27:26;;;;;;;13.07;10.10;;;6.10;99.90;;;;;;4968160;28;20438;-85
2023/03/09 11:30:11;;;;;;;11.98;9.35;;;6.00;99.90;;;;;;4974972;28;20061;-85
2023/03/09 11:32:36;;;;;;;12.57;10.27;;;6.20;1.00;;;;;;4982294;28;20177;-85
2023/03/09 11:35:03;;;;;;;13.52;9.40;;;6.30;1.00;;;;;;4969390;28;20207;-85
2023/03/09 11:37:54;;;;;;;11.88;9.52;;;6.10;99.90;;;;;;5046768;28;20382;-85
2023/03/09 11:40:24;;;;;;;13.02;9.68;;;6.50;99.90;;;;;;4993241;28;20049;-84
2023/03/09 11:43:01;;;;;;;11.18;8.55;;;6.70;99.90;;;;;;5007146;28;20034;-84
2023/03/09 11:45:30;;;;;;;12.82;9.82;;;6.80;99.90;;;;;;4969107;28;20362;-85
2023/03/09 11:48:07;;;;;;;12.25;9.63;;;6.70;1.00;;;;;;4982135;28;20167;-85
2023/03/09 11:50:38;;;;;;;10.05;8.57;;;6.40;1.00;;;;;;5062135;28;20042;-85
2023/03/09 11:53:21;;;;;;;13.25;9.93;;;6.40;94.10;;;;;;4970247;28;20038;-85
2023/03/09 11:55:52;;;;;;;12.02;9.18;;;6.40;9.40;;;;;;4975158;28;20220;-85
2023/03/09 11:58:28;;;;;;;12.05;9.05;;;6.30;1.00;;;;;;4982657;28;20442;-85
2023/03/09 12:01:16;;;;;;;12.10;8.82;;;6.40;99.90;;;;;;4989828;28;20424;-85
2023/03/09 12:03:59;;;;;;;10.20;7.82;;;6.30;1.00;;;;;;5001444;28;20113;-85
2023/03/09 12:06:34;;;;;;;11.98;9.15;;;6.30;8.40;;;;;;4998033;28;20470;-84
2023/03/09 12:09:03;;;;;;;12.68;8.07;;;6.10;99.90;;;;;;4993180;28;20568;-85
2023/03/09 12:11:38;;;;;;;12.02;8.25;;;6.30;99.90;;;;;;4994672;28;20493;-85
2023/03/09 12:14:19;;;;;;;8.90;7.00;;;6.40;1.00;;;;;;4965255;28;20049;-85
2023/03/09 12:16:48;;;;;;;11.77;7.57;;;6.40;99.90;;;;;;5056234;28;20036;-85
2023/03/09 12:19:17;;;;;;;10.27;7.95;;;6.30;99.90;;;;;;4962528;28;20102;-86
2023/03/09 12:22:15;;;;;;;10.85;8.70;;;6.40;99.90;;;;;;5052690;28;20043;-85
2023/03/09 12:24:43;;;;;;;11.77;9.15;;;6.50;99.90;;;;;;4991359;28;20046;-85
2023/03/09 12:27:19;;;;;;;11.75;9.18;;;6.30;41.00;;;;;;4982542;28;20065;-85
2023/03/09 12:29:51;;;;;;;11.88;9.05;;;6.40;1.00;;;;;;5061421;28;20062;-85
2023/03/09 12:32:18;;;;;;;10.50;8.50;;;6.50;99.90;;;;;;5013265;28;20038;-85
2023/03/09 12:34:45;;;;;;;11.02;8.55;;;6.20;1.00;;;;;;4978393;28;20562;-85
2023/03/09 12:37:30;;;;;;;12.00;9.00;;;6.30;99.90;;;;;;5059351;28;20046;-85
2023/03/09 12:40:14;;;;;;;12.95;10.05;;;6.40;99.90;;;;;;4977811;28;20825;-85
2023/03/09 12:42:41;;;;;;;11.50;9.00;;;6.40;99.90;;;;;;4965104;28;20520;-84
2023/03/09 12:45:25;;;;;;;14.00;9.60;;;6.20;99.90;;;;;;4970485;28;20271;-85
2023/03/09 12:48:12;;;;;;;12.95;9.30;;;6.20;99.90;;;;;;4972057;28;20042;-85
2023/03/09 12:50:45;;;;;;;11.77;9.82;;;6.20;1.00;;;;;;4966663;28;20050;-84
2023/03/09 12:53:14;;;;;;;11.27;9.15;;;6.10;1.00;;;;;;5001935;28;20097;-85